Ichikawa, Japan
Current Conditions -  °F | °C
As of 12:30 AM on Sunday 26 Oct 2014 (Local Time) from RJTT Reporting Station
Broken Clouds Broken Clouds  
Wind Chill: 66°   Ceiling: 1500
Heat Index: 66°   Visibility: 6mi
Dew Point: 63°   Wind: 1mph
Humidity: 88%   Direction: NA
Pressure: 30.18"   Gusts: NA
Location:  35.72°N, 139.93°E
Report Text: RJTT 251530Z VRB01KT 9999 FEW010 BKN015 19/17 Q1022 NOSIG
Loading
Personal Weather Stations






























Interactive Weather Map
Tropical Storm Tracking
New forecast layout! Learn more

10-Day Weather Forecast

Advertisements
Track Severe Weather on mobile